createdAt,value
2018-10-12T00:02:08.908Z,76.06
2018-10-12T00:06:13.954Z,77.11
2018-10-12T00:10:19.005Z,76.88
2018-10-12T00:14:24.022Z,77.13
2018-10-12T00:18:29.084Z,76.58
2018-10-12T00:22:34.142Z,77.48
2018-10-12T00:26:39.441Z,77.36
2018-10-12T00:30:44.751Z,78.27
2018-10-12T00:34:49.847Z,77.76
2018-10-12T00:38:54.960Z,78.13
2018-10-12T00:42:59.985Z,78.69
2018-10-12T00:47:05.017Z,78.91
2018-10-12T00:51:10.054Z,77.87
2018-10-12T00:55:15.081Z,79.00
2018-10-12T00:59:20.117Z,79.86
2018-10-12T01:03:25.141Z,80.26
2018-10-12T01:07:30.185Z,81.01
2018-10-12T01:11:35.251Z,81.59
2018-10-12T01:15:40.284Z,81.31
2018-10-12T01:19:45.342Z,80.53
2018-10-12T01:23:50.387Z,81.70
2018-10-12T01:27:55.452Z,80.84
2018-10-12T01:32:00.500Z,81.36
2018-10-12T01:36:05.615Z,81.94
2018-10-12T01:40:11.552Z,82.90
2018-10-12T01:44:16.618Z,82.10
2018-10-12T01:48:21.677Z,82.95
2018-10-12T01:52:26.758Z,82.82
2018-10-12T01:56:31.802Z,81.47
2018-10-12T02:00:36.838Z,82.22
2018-10-12T02:04:41.877Z,82.53
2018-10-12T02:08:46.929Z,82.88
2018-10-12T02:12:51.981Z,82.03
2018-10-12T02:16:57.027Z,84.19
2018-10-12T02:21:02.527Z,83.99
2018-10-12T02:25:07.924Z,84.00
2018-10-12T02:29:13.019Z,84.08
2018-10-12T02:33:18.053Z,83.94
2018-10-12T02:37:23.062Z,83.98
2018-10-12T02:41:29.219Z,83.91
2018-10-12T02:45:34.226Z,84.21
2018-10-12T02:49:39.255Z,84.87
2018-10-12T02:53:44.301Z,84.58
2018-10-12T02:57:49.319Z,84.86
2018-10-12T03:01:54.338Z,85.16
2018-10-12T03:05:59.474Z,84.81
2018-10-12T03:10:04.537Z,85.31
2018-10-12T03:14:09.573Z,85.33
2018-10-12T03:18:14.599Z,85.09
2018-10-12T03:22:19.646Z,85.70
2018-10-12T03:26:24.709Z,84.83
2018-10-12T03:30:29.767Z,85.33
2018-10-12T03:34:34.929Z,85.63
2018-10-12T03:38:40.006Z,84.65
2018-10-12T03:42:45.057Z,86.07
2018-10-12T03:46:50.101Z,85.63
2018-10-12T03:50:55.164Z,85.42
2018-10-12T03:55:00.205Z,85.36
2018-10-12T03:59:05.254Z,85.78
2018-10-12T04:03:10.328Z,85.60
2018-10-12T04:07:15.403Z,85.17
2018-10-12T04:11:20.469Z,86.05
2018-10-12T04:15:25.541Z,85.70
2018-10-12T04:19:30.590Z,85.20
2018-10-12T04:23:35.657Z,85.49
2018-10-12T04:27:40.713Z,85.32
2018-10-12T04:31:45.743Z,85.25
2018-10-12T04:35:50.753Z,85.70
2018-10-12T04:40:20.543Z,87.10
2018-10-12T04:44:25.659Z,87.04
2018-10-12T04:48:30.774Z,86.53
2018-10-12T04:52:35.837Z,86.90
2018-10-12T04:56:41.142Z,86.84
2018-10-12T05:00:46.423Z,86.75
2018-10-12T05:04:51.538Z,86.54
2018-10-12T05:08:56.671Z,86.03
2018-10-12T05:13:01.854Z,85.70
2018-10-12T05:17:08.935Z,86.75
2018-10-12T05:21:14.030Z,88.16
2018-10-12T05:25:19.089Z,86.74
2018-10-12T05:29:24.154Z,86.97
2018-10-12T05:33:29.193Z,86.26
2018-10-12T05:37:34.205Z,86.15
2018-10-12T05:41:39.270Z,86.29
2018-10-12T05:45:44.551Z,86.47
2018-10-12T05:50:00.487Z,87.70
2018-10-12T05:54:05.927Z,87.50
2018-10-12T05:58:11.045Z,86.71
2018-10-12T06:02:16.069Z,86.11
2018-10-12T06:06:21.444Z,85.98
2018-10-12T06:10:28.505Z,85.33
2018-10-12T06:14:33.537Z,85.37
2018-10-12T06:18:38.597Z,84.68
2018-10-12T06:22:43.636Z,85.07
2018-10-12T06:26:48.796Z,85.25
2018-10-12T06:30:53.775Z,85.72
2018-10-12T06:34:58.838Z,84.29
2018-10-12T06:39:04.791Z,84.16
2018-10-12T06:43:09.865Z,83.99
2018-10-12T06:47:14.961Z,85.11
2018-10-12T06:51:20.939Z,84.94
2018-10-12T06:55:25.985Z,85.31
2018-10-12T06:59:31.042Z,83.60
2018-10-12T07:03:36.102Z,82.95
2018-10-12T07:07:41.146Z,83.87
2018-10-12T07:11:46.190Z,82.96
2018-10-12T07:15:51.266Z,82.23
2018-10-12T07:19:56.343Z,81.30
2018-10-12T07:24:01.409Z,81.74
2018-10-12T07:28:06.525Z,80.52
2018-10-12T07:32:11.534Z,79.92
2018-10-12T07:36:16.584Z,79.46
2018-10-12T07:40:21.609Z,78.47
2018-10-12T07:44:26.790Z,76.37
2018-10-12T07:48:31.830Z,75.16
2018-10-12T07:52:36.880Z,73.90
2018-10-12T07:56:41.919Z,71.12
2018-10-12T08:00:47.082Z,68.60
2018-10-12T08:04:52.240Z,67.91
2018-10-12T08:08:57.298Z,66.90
2018-10-12T08:13:02.377Z,64.71
2018-10-12T08:17:08.127Z,64.32
2018-10-12T08:21:13.513Z,62.08
2018-10-12T08:25:18.708Z,64.26
2018-10-12T08:29:25.950Z,61.43
2018-10-12T08:33:31.034Z,57.74
2018-10-12T08:37:38.105Z,60.28
2018-10-12T08:41:43.220Z,58.60
2018-10-12T08:45:48.291Z,58.06
2018-10-12T08:49:53.301Z,58.67
2018-10-12T08:53:58.345Z,57.67
2018-10-12T08:58:03.371Z,58.25
2018-10-12T09:02:08.558Z,58.46
2018-10-12T09:06:13.907Z,60.33
2018-10-12T09:10:18.993Z,59.96
2018-10-12T09:14:24.082Z,60.05
2018-10-12T09:18:29.132Z,60.36
2018-10-12T09:22:34.250Z,61.85
2018-10-12T09:26:39.323Z,61.00
2018-10-12T09:30:44.377Z,60.61
2018-10-12T09:34:49.455Z,60.88
2018-10-12T09:38:54.523Z,62.26
2018-10-12T09:42:59.581Z,61.14
2018-10-12T09:47:04.645Z,61.03
2018-10-12T09:51:09.793Z,61.03
2018-10-12T09:55:14.839Z,60.50
2018-10-12T09:59:19.880Z,60.74
2018-10-12T10:03:30.143Z,60.69
2018-10-12T10:07:35.289Z,59.91
2018-10-12T10:11:40.205Z,59.30
2018-10-12T10:15:45.238Z,59.25
2018-10-12T10:19:50.299Z,58.67
2018-10-12T10:23:55.360Z,58.83
2018-10-12T10:28:00.427Z,58.46
2018-10-12T10:32:05.513Z,58.19
2018-10-12T10:36:10.562Z,57.95
2018-10-12T10:40:15.803Z,57.76
2018-10-12T10:44:20.856Z,57.48
2018-10-12T10:48:25.955Z,56.80
2018-10-12T10:52:30.998Z,56.79
2018-10-12T10:56:36.053Z,56.95
2018-10-12T11:00:41.256Z,56.84
2018-10-12T11:04:46.285Z,56.91
2018-10-12T11:08:51.329Z,56.44
2018-10-12T11:12:56.467Z,55.72
2018-10-12T11:17:01.437Z,56.17
2018-10-12T11:21:07.310Z,55.96
2018-10-12T11:25:12.357Z,55.49
2018-10-12T11:29:17.417Z,53.92
2018-10-12T11:33:23.335Z,52.17
2018-10-12T11:41:45.763Z,49.20
2018-10-12T11:45:50.821Z,47.55
2018-10-12T11:49:55.861Z,45.82
2018-10-12T11:54:00.967Z,45.13
2018-10-12T11:58:06.314Z,44.69
2018-10-12T12:02:11.403Z,43.02
2018-10-12T12:06:16.418Z,43.66
2018-10-12T12:10:21.503Z,42.73
2018-10-12T12:14:26.898Z,43.66
2018-10-12T12:18:31.985Z,41.22
2018-10-12T12:22:37.045Z,40.33
2018-10-12T12:26:42.114Z,40.73
2018-10-12T12:30:48.250Z,39.26
2018-10-12T12:34:53.378Z,38.76
2018-10-12T12:38:58.408Z,39.10
2018-10-12T12:43:03.487Z,38.60
2018-10-12T12:47:08.555Z,37.79
2018-10-12T12:51:14.067Z,37.52
2018-10-12T12:55:19.130Z,39.61
2018-10-12T12:59:24.191Z,39.09
2018-10-12T13:03:29.261Z,36.94
2018-10-12T13:07:34.390Z,37.65
2018-10-12T13:11:39.426Z,37.43
2018-10-12T13:15:44.575Z,38.50
2018-10-12T13:19:49.711Z,36.63
2018-10-12T13:23:54.937Z,37.47
2018-10-12T13:28:00.093Z,38.46
2018-10-12T13:32:05.457Z,38.12
2018-10-12T13:36:10.436Z,38.51
2018-10-12T13:40:15.511Z,38.67
2018-10-12T13:44:20.589Z,40.22
2018-10-12T13:48:25.667Z,39.99
2018-10-12T13:52:30.756Z,41.05
2018-10-12T13:56:35.841Z,42.84
2018-10-12T14:00:40.899Z,41.61
2018-10-12T14:04:45.987Z,42.32
2018-10-12T14:08:51.057Z,42.67
2018-10-12T14:12:56.090Z,42.31
2018-10-12T14:17:01.163Z,42.92
2018-10-12T14:21:06.311Z,41.74
2018-10-12T14:25:11.510Z,42.47
2018-10-12T14:29:16.502Z,42.39
2018-10-12T14:33:21.563Z,43.31
2018-10-12T14:37:26.651Z,43.86
2018-10-12T14:41:31.754Z,43.11
2018-10-12T14:45:37.064Z,42.83
2018-10-12T14:49:42.330Z,42.92
2018-10-12T14:53:47.659Z,43.22
2018-10-12T14:57:52.894Z,42.74
2018-10-12T15:01:58.856Z,41.38
2018-10-12T15:06:04.193Z,41.83
2018-10-12T15:10:09.808Z,41.28
2018-10-12T15:14:14.947Z,41.22
2018-10-12T15:18:20.105Z,40.88
2018-10-12T15:22:25.295Z,42.29
2018-10-12T15:26:30.671Z,41.65
2018-10-12T15:30:36.027Z,42.21
2018-10-12T15:34:41.569Z,41.95
2018-10-12T15:38:48.272Z,41.84
2018-10-12T15:42:53.627Z,42.72
2018-10-12T15:46:58.827Z,42.46
2018-10-12T15:51:05.328Z,43.56
2018-10-12T15:55:11.467Z,42.33
2018-10-12T15:59:17.240Z,43.67
2018-10-12T16:03:22.698Z,43.10
2018-10-12T16:07:28.031Z,43.21
2018-10-12T16:11:33.438Z,43.64
2018-10-12T16:15:38.783Z,44.13
2018-10-12T16:19:43.918Z,44.46
2018-10-12T16:23:51.639Z,45.00
2018-10-12T16:27:56.714Z,44.76
2018-10-12T16:32:01.759Z,44.92
2018-10-12T16:36:06.833Z,45.89
2018-10-12T16:40:12.817Z,45.47
2018-10-12T16:44:18.100Z,46.62
2018-10-12T16:48:23.408Z,46.59
2018-10-12T16:52:28.540Z,46.67
2018-10-12T16:56:33.766Z,47.96
2018-10-12T17:00:39.103Z,48.29
2018-10-12T17:04:45.086Z,47.79
2018-10-12T17:08:50.208Z,49.81
2018-10-12T17:12:55.291Z,49.87
2018-10-12T17:17:00.417Z,49.14
2018-10-12T17:21:05.470Z,49.92
2018-10-12T17:25:10.537Z,49.94
2018-10-12T17:29:15.570Z,51.01
2018-10-12T17:33:20.674Z,51.95
2018-10-12T17:37:25.783Z,53.55
2018-10-12T17:41:30.862Z,52.44
2018-10-12T17:45:35.935Z,54.64
2018-10-12T17:49:41.152Z,53.53
2018-10-12T17:53:46.285Z,53.71
2018-10-12T17:57:51.475Z,53.54
2018-10-12T18:01:56.896Z,55.11
2018-10-12T18:06:03.145Z,55.52
2018-10-12T18:10:10.034Z,55.46
2018-10-12T18:14:15.429Z,57.50
2018-10-12T18:18:20.706Z,56.33
2018-10-12T18:22:25.900Z,57.64
2018-10-12T18:26:31.176Z,56.81
2018-10-12T18:30:36.436Z,57.23
2018-10-12T18:34:41.567Z,57.10
2018-10-12T18:38:46.802Z,57.28
2018-10-12T18:42:51.932Z,58.07
2018-10-12T18:46:56.966Z,58.18
2018-10-12T18:51:02.099Z,57.61
2018-10-12T18:55:07.185Z,58.65
2018-10-12T18:59:12.290Z,59.75
2018-10-12T19:03:17.374Z,58.64
2018-10-12T19:07:22.687Z,58.96
2018-10-12T19:11:27.814Z,59.18
2018-10-12T19:15:33.030Z,58.03
2018-10-12T19:19:38.177Z,58.35
2018-10-12T19:23:43.238Z,59.10
2018-10-12T19:27:48.211Z,60.17
2018-10-12T19:31:53.396Z,61.46
2018-10-12T19:35:58.415Z,60.75
2018-10-12T19:40:03.459Z,60.81
2018-10-12T19:44:09.385Z,62.19
2018-10-12T19:48:14.613Z,61.95
2018-10-12T19:52:19.705Z,61.60
2018-10-12T19:56:24.947Z,62.17
2018-10-12T20:00:29.998Z,62.30
2018-10-12T20:04:35.127Z,61.89
2018-10-12T20:08:40.251Z,62.41
2018-10-12T20:12:45.350Z,62.33
2018-10-12T20:16:50.438Z,62.05
2018-10-12T20:20:55.502Z,62.53
2018-10-12T20:25:00.594Z,62.55
2018-10-12T20:29:05.756Z,63.41
2018-10-12T20:33:10.789Z,63.67
2018-10-12T20:37:15.802Z,64.34
2018-10-12T20:41:20.834Z,64.38
2018-10-12T20:45:25.888Z,64.73
2018-10-12T20:49:30.925Z,65.63
2018-10-12T20:53:35.971Z,66.04
2018-10-12T20:57:47.998Z,66.35
2018-10-12T21:01:53.059Z,66.85
2018-10-12T21:05:58.156Z,66.40
2018-10-12T21:10:03.254Z,67.09
2018-10-12T21:14:08.349Z,66.54
2018-10-12T21:18:13.386Z,67.36
2018-10-12T21:22:18.463Z,67.52
2018-10-12T21:26:23.518Z,67.94
2018-10-12T21:30:28.806Z,68.00
2018-10-12T21:34:33.913Z,68.10
2018-10-12T21:38:39.044Z,68.26
2018-10-12T21:42:44.098Z,68.93
2018-10-12T21:46:49.311Z,69.57
2018-10-12T21:50:55.392Z,68.86
2018-10-12T21:55:00.447Z,69.46
2018-10-12T21:59:05.530Z,69.91
2018-10-12T22:03:10.609Z,70.00
2018-10-12T22:07:15.750Z,70.32
2018-10-12T22:11:20.829Z,70.90
2018-10-12T22:15:25.866Z,71.44
2018-10-12T22:19:30.930Z,71.70
2018-10-12T22:23:36.376Z,71.34
2018-10-12T22:27:41.469Z,72.25
2018-10-12T22:31:46.540Z,71.60
2018-10-12T22:35:51.644Z,71.81
2018-10-12T22:39:56.794Z,72.72
2018-10-12T22:44:01.983Z,72.62
2018-10-12T22:48:07.172Z,72.38
2018-10-12T22:52:12.287Z,72.92
2018-10-12T22:56:17.398Z,72.97
2018-10-12T23:00:22.560Z,73.07
2018-10-12T23:04:27.739Z,73.23
2018-10-12T23:08:32.894Z,72.89
2018-10-12T23:12:38.043Z,73.93
2018-10-12T23:16:43.158Z,74.09
2018-10-12T23:20:49.303Z,73.72
2018-10-12T23:24:54.363Z,73.71
2018-10-12T23:28:59.703Z,73.26
2018-10-12T23:33:21.870Z,74.32
2018-10-12T23:37:26.937Z,74.70
2018-10-12T23:41:31.963Z,74.83
2018-10-12T23:45:36.996Z,74.23
2018-10-12T23:49:42.056Z,74.52
2018-10-12T23:53:47.087Z,75.19
2018-10-12T23:57:52.164Z,74.51
